createdAt,value
2022-09-02T00:01:32.884Z,101740.47
2022-09-02T00:04:13.807Z,101737.91
2022-09-02T00:06:43.044Z,101744.88
2022-09-02T00:09:12.322Z,101743.38
2022-09-02T00:11:41.111Z,101742.44
2022-09-02T00:14:12.622Z,101742.56
2022-09-02T00:16:42.656Z,101739.94
2022-09-02T00:19:11.066Z,101740.06
2022-09-02T00:21:38.581Z,101741.91
2022-09-02T00:24:07.624Z,101742.69
2022-09-02T00:26:35.255Z,101734.03
2022-09-02T00:29:02.962Z,101738.41
2022-09-02T00:31:30.776Z,101735.03
2022-09-02T00:33:58.371Z,101739.41
2022-09-02T00:36:26.213Z,101714.25
2022-09-02T00:38:54.099Z,101735.16
2022-09-02T00:41:25.340Z,101721.16
2022-09-02T00:44:20.559Z,101724.72
2022-09-02T00:46:48.302Z,101724.81
2022-09-02T00:49:26.611Z,101722.19
2022-09-02T00:52:08.800Z,101721.38
2022-09-02T00:54:42.147Z,101717.97
2022-09-02T00:57:15.764Z,101721.47
2022-09-02T00:59:55.851Z,101711.97
2022-09-02T01:02:25.287Z,101717.25
2022-09-02T01:04:56.702Z,101714.69
2022-09-02T01:07:26.079Z,101718.22
2022-09-02T01:09:56.267Z,101707.00
2022-09-02T01:12:27.688Z,101716.69
2022-09-02T01:14:55.321Z,101699.22
2022-09-02T01:17:22.946Z,101707.22
2022-09-02T01:19:55.802Z,101712.53
2022-09-02T01:22:26.693Z,101711.69
2022-09-02T01:24:57.488Z,101709.13
2022-09-02T01:27:25.178Z,101700.50
2022-09-02T01:29:58.068Z,101705.69
2022-09-02T01:32:26.959Z,101701.34
2022-09-02T01:34:54.483Z,101705.72
2022-09-02T01:37:22.334Z,101696.16
2022-09-02T01:39:52.243Z,101700.47
2022-09-02T01:42:21.475Z,101696.13
2022-09-02T01:44:49.020Z,101693.50
2022-09-02T01:47:22.944Z,101684.78
2022-09-02T01:49:51.460Z,101694.41
2022-09-02T01:52:20.071Z,101687.44
2022-09-02T01:54:48.283Z,101684.78
2022-09-02T01:57:16.020Z,101693.59
2022-09-02T01:59:44.631Z,101682.28
2022-09-02T02:02:12.246Z,101689.25
2022-09-02T02:04:42.129Z,101686.63
2022-09-02T02:07:09.590Z,101686.63
2022-09-02T02:09:37.091Z,101685.84
2022-09-02T02:12:06.213Z,101684.13
2022-09-02T02:14:33.676Z,101684.09
2022-09-02T02:17:01.357Z,101675.41
2022-09-02T02:19:28.926Z,101681.59
2022-09-02T02:21:56.591Z,101679.78
2022-09-02T02:24:24.516Z,101682.34
2022-09-02T02:26:52.681Z,101680.66
2022-09-02T02:29:21.062Z,101675.50
2022-09-02T02:31:48.775Z,101679.84
2022-09-02T02:34:16.616Z,101681.59
2022-09-02T02:36:44.377Z,101679.88
2022-09-02T02:39:12.598Z,101678.97
2022-09-02T02:41:44.892Z,101676.41
2022-09-02T02:44:12.656Z,101673.88
2022-09-02T02:46:40.161Z,101676.47
2022-09-02T02:49:07.869Z,101672.94
2022-09-02T02:51:36.438Z,101669.50
2022-09-02T02:54:04.726Z,101668.59
2022-09-02T02:56:33.005Z,101668.66
2022-09-02T02:59:03.149Z,101672.16
2022-09-02T03:01:31.950Z,101660.03
2022-09-02T03:03:59.733Z,101658.34
2022-09-02T03:06:27.494Z,101656.66
2022-09-02T03:08:55.076Z,101658.34
2022-09-02T03:11:22.677Z,101658.50
2022-09-02T03:13:53.194Z,101659.34
2022-09-02T03:16:20.921Z,101656.72
2022-09-02T03:18:50.418Z,101656.72
2022-09-02T03:21:19.147Z,101655.00
2022-09-02T03:23:47.950Z,101641.06
2022-09-02T03:26:19.675Z,101658.56
2022-09-02T03:28:48.580Z,101655.03
2022-09-02T03:31:19.576Z,101649.84
2022-09-02T03:33:47.524Z,101651.63
2022-09-02T03:36:31.063Z,101648.13
2022-09-02T03:38:58.744Z,101649.94
2022-09-02T03:41:26.777Z,101660.50
2022-09-02T03:43:54.281Z,101655.25
2022-09-02T03:46:21.949Z,101643.09
2022-09-02T03:48:51.727Z,101650.03
2022-09-02T03:51:21.129Z,101639.56
2022-09-02T03:53:49.060Z,101636.94
2022-09-02T03:56:17.626Z,101634.31
2022-09-02T03:58:46.627Z,101636.97
2022-09-02T04:01:17.184Z,101627.44
2022-09-02T04:03:45.870Z,101630.94
2022-09-02T04:06:15.430Z,101636.19
2022-09-02T04:08:43.867Z,101625.75
2022-09-02T04:11:16.409Z,101632.69
2022-09-02T04:13:44.135Z,101627.53
2022-09-02T04:16:19.016Z,101623.19
2022-09-02T04:18:46.559Z,101629.25
2022-09-02T04:21:14.870Z,101618.81
2022-09-02T04:23:43.228Z,101618.81
2022-09-02T04:26:14.185Z,101622.34
2022-09-02T04:28:42.217Z,101620.59
2022-09-02T04:31:12.531Z,101618.81
2022-09-02T04:33:40.594Z,101626.69
2022-09-02T04:36:12.730Z,101620.59
2022-09-02T04:38:42.522Z,101622.31
2022-09-02T04:41:16.627Z,101625.81
2022-09-02T04:43:44.607Z,101612.78
2022-09-02T04:46:14.782Z,101616.97
2022-09-02T04:48:44.678Z,101617.00
2022-09-02T04:51:16.574Z,101617.88
2022-09-02T04:53:45.570Z,101618.78
2022-09-02T04:56:17.124Z,101615.22
2022-09-02T04:58:45.940Z,101611.75
2022-09-02T05:01:17.632Z,101610.00
2022-09-02T05:03:46.353Z,101618.69
2022-09-02T05:06:17.607Z,101606.44
2022-09-02T05:08:48.104Z,101613.41
2022-09-02T05:11:21.479Z,101610.78
2022-09-02T05:13:51.448Z,101609.84
2022-09-02T05:16:21.497Z,101605.53
2022-09-02T05:18:50.013Z,101611.56
2022-09-02T05:21:17.821Z,101602.03
2022-09-02T05:23:45.368Z,101616.00
2022-09-02T05:26:14.684Z,101608.94
2022-09-02T05:28:42.970Z,101614.94
2022-09-02T05:31:14.171Z,101611.41
2022-09-02T05:33:42.963Z,101610.66
2022-09-02T05:36:19.036Z,101614.94
2022-09-02T05:38:47.238Z,101603.50
2022-09-02T05:41:17.917Z,101603.38
2022-09-02T05:43:46.029Z,101600.75
2022-09-02T05:46:17.686Z,101608.50
2022-09-02T05:49:04.173Z,101612.81
2022-09-02T05:51:33.965Z,101612.69
2022-09-02T05:54:02.481Z,101614.44
2022-09-02T05:56:30.382Z,101610.81
2022-09-02T05:59:00.836Z,101602.00
2022-09-02T06:01:30.172Z,101591.50
2022-09-02T06:03:58.819Z,101609.69
2022-09-02T06:06:26.338Z,101607.78
2022-09-02T06:08:53.814Z,101599.81
2022-09-02T06:11:22.147Z,101608.50
2022-09-02T06:13:49.750Z,101595.34
2022-09-02T06:16:19.635Z,101602.25
2022-09-02T06:18:48.187Z,101597.84
2022-09-02T06:21:16.885Z,101597.78
2022-09-02T06:23:44.980Z,101600.22
2022-09-02T06:26:14.220Z,101592.44
2022-09-02T06:28:41.842Z,101593.81
2022-09-02T06:31:15.255Z,101593.66
2022-09-02T06:33:44.748Z,101593.97
2022-09-02T06:36:19.213Z,101593.25
2022-09-02T06:38:48.860Z,101593.22
2022-09-02T06:41:19.280Z,101593.72
2022-09-02T06:43:46.990Z,101599.84
2022-09-02T06:46:22.876Z,101594.59
2022-09-02T06:48:50.509Z,101601.41
2022-09-02T06:51:24.014Z,101590.88
2022-09-02T06:53:52.154Z,101583.91
2022-09-02T06:56:19.929Z,101586.91
2022-09-02T06:58:47.472Z,101586.00
2022-09-02T07:01:22.907Z,101581.13
2022-09-02T07:04:08.132Z,101579.38
2022-09-02T07:06:41.499Z,101588.09
2022-09-02T07:09:11.614Z,101578.50
2022-09-02T07:11:39.992Z,101583.34
2022-09-02T07:14:08.055Z,101579.88
2022-09-02T07:16:39.008Z,101571.78
2022-09-02T07:19:12.080Z,101577.25
2022-09-02T07:21:42.277Z,101571.38
2022-09-02T07:24:11.822Z,101575.88
2022-09-02T07:26:39.618Z,101564.56
2022-09-02T07:29:08.927Z,101578.69
2022-09-02T07:31:38.062Z,101569.03
2022-09-02T07:34:07.218Z,101569.94
2022-09-02T07:36:36.556Z,101561.19
2022-09-02T07:39:07.213Z,101573.66
2022-09-02T07:41:35.623Z,101573.59
2022-09-02T07:44:04.599Z,101561.19
2022-09-02T07:46:32.280Z,101560.94
2022-09-02T07:49:04.988Z,101557.25
2022-09-02T07:51:39.051Z,101570.88
2022-09-02T07:54:08.730Z,101574.44
2022-09-02T07:56:36.858Z,101555.75
2022-09-02T07:59:04.955Z,101559.97
2022-09-02T08:01:34.408Z,101561.59
2022-09-02T08:04:05.575Z,101556.78
2022-09-02T08:06:35.349Z,101559.47
2022-09-02T08:09:11.116Z,101549.19
2022-09-02T08:11:45.164Z,101560.63
2022-09-02T08:14:18.065Z,101561.16
2022-09-02T08:16:47.655Z,101558.16
2022-09-02T08:19:16.264Z,101564.22
2022-09-02T08:21:43.845Z,101554.63
2022-09-02T08:24:11.312Z,101545.69
2022-09-02T08:26:38.895Z,101550.84
2022-09-02T08:29:08.602Z,101547.09
2022-09-02T08:31:38.720Z,101545.28
2022-09-02T08:34:06.383Z,101538.94
2022-09-02T08:36:34.205Z,101536.00
2022-09-02T08:39:04.149Z,101542.47
2022-09-02T08:44:29.589Z,101546.63
2022-09-02T08:47:02.456Z,101543.31
2022-09-02T08:49:39.799Z,101539.34
2022-09-02T08:52:07.709Z,101532.78
2022-09-02T08:54:41.314Z,101536.34
2022-09-02T08:57:09.350Z,101532.22
2022-09-02T08:59:38.017Z,101528.59
2022-09-02T09:02:33.968Z,101539.41
2022-09-02T09:05:19.430Z,101529.88
2022-09-02T09:08:15.749Z,101528.13
2022-09-02T09:11:03.818Z,101523.44
2022-09-02T09:13:46.282Z,101492.44
2022-09-02T09:16:32.097Z,101518.22
2022-09-02T09:19:38.502Z,101522.13
2022-09-02T09:22:06.272Z,101520.50
2022-09-02T09:24:40.443Z,101515.75
2022-09-02T09:27:15.053Z,101523.66
2022-09-02T09:29:46.060Z,101517.78
2022-09-02T09:32:23.982Z,101514.00
2022-09-02T09:34:56.615Z,101509.34
2022-09-02T09:37:33.894Z,101510.56
2022-09-02T09:40:21.586Z,101502.88
2022-09-02T09:42:56.837Z,101504.16
2022-09-02T09:45:34.203Z,101515.16
2022-09-02T09:48:27.742Z,101506.66
2022-09-02T09:50:58.247Z,101508.63
2022-09-02T09:53:27.393Z,101513.03
2022-09-02T09:56:01.596Z,101504.25
2022-09-02T09:58:50.041Z,101485.13
2022-09-02T10:01:22.107Z,101501.78
2022-09-02T10:03:56.913Z,101495.63
2022-09-02T10:06:44.586Z,101484.47
2022-09-02T10:09:15.265Z,101490.72
2022-09-02T10:12:00.898Z,101495.25
2022-09-02T10:14:45.832Z,101489.81
2022-09-02T10:17:51.885Z,101483.81
2022-09-02T10:20:44.570Z,101490.78
2022-09-02T10:23:46.542Z,101490.44
2022-09-02T10:29:34.766Z,101496.78
2022-09-02T10:32:11.296Z,101492.31
2022-09-02T10:34:38.714Z,101489.97
2022-09-02T10:37:18.693Z,101480.44
2022-09-02T10:40:11.000Z,101485.16
2022-09-02T10:43:03.768Z,101484.75
2022-09-02T10:45:44.757Z,101485.38
2022-09-02T10:48:43.211Z,101475.03
2022-09-02T10:51:38.110Z,101474.84
2022-09-02T10:54:09.606Z,101475.22
2022-09-02T10:56:50.613Z,101460.59
2022-09-02T10:59:26.783Z,101460.63
2022-09-02T11:02:29.422Z,101454.41
2022-09-02T11:04:59.759Z,101458.78
2022-09-02T11:07:37.709Z,101461.66
2022-09-02T11:10:57.342Z,101451.69
2022-09-02T11:13:30.027Z,101455.22
2022-09-02T11:16:15.498Z,101453.56
2022-09-02T11:18:56.148Z,101456.31
2022-09-02T11:21:46.874Z,101448.63
2022-09-02T11:24:48.997Z,101438.63
2022-09-02T11:27:41.236Z,101433.13
2022-09-02T11:30:13.990Z,101438.47
2022-09-02T11:32:44.154Z,101440.09
2022-09-02T11:35:18.324Z,101430.88
2022-09-02T11:37:56.394Z,101433.78
2022-09-02T11:40:35.008Z,101418.34
2022-09-02T11:43:38.339Z,101423.97
2022-09-02T11:46:34.089Z,101416.75
2022-09-02T11:49:13.537Z,101413.22
2022-09-02T11:51:49.867Z,101418.13
2022-09-02T11:54:20.872Z,101410.38
2022-09-02T11:56:53.201Z,101410.91
2022-09-02T11:59:45.122Z,101405.06
2022-09-02T12:02:13.857Z,101409.50
2022-09-02T12:04:59.682Z,101405.13
2022-09-02T12:07:33.815Z,101405.25
2022-09-02T12:10:02.766Z,101400.53
2022-09-02T12:12:39.320Z,101406.81
2022-09-02T12:15:08.139Z,101395.66
2022-09-02T12:17:38.008Z,101397.31
2022-09-02T12:20:32.813Z,101395.88
2022-09-02T12:23:00.352Z,101391.50
2022-09-02T12:25:28.262Z,101385.75
2022-09-02T12:28:25.684Z,101379.44
2022-09-02T12:30:56.401Z,101379.91
2022-09-02T12:33:35.867Z,101379.22
2022-09-02T12:36:05.576Z,101370.91
2022-09-02T12:38:33.993Z,101379.22
2022-09-02T12:41:08.760Z,101371.88
2022-09-02T12:43:50.918Z,101362.53
2022-09-02T12:46:36.888Z,101374.69
2022-09-02T12:49:27.463Z,101362.88
2022-09-02T12:52:02.385Z,101379.88
2022-09-02T12:54:42.816Z,101367.47
2022-09-02T12:57:11.260Z,101368.50
2022-09-02T12:59:41.288Z,101362.41
2022-09-02T13:02:20.963Z,101373.72
2022-09-02T13:05:15.919Z,101373.81
2022-09-02T13:08:11.089Z,101363.53
2022-09-02T13:10:44.370Z,101361.69
2022-09-02T13:13:32.090Z,101359.66
2022-09-02T13:16:18.286Z,101343.41
2022-09-02T13:19:08.539Z,101344.38
2022-09-02T13:21:49.117Z,101337.28
2022-09-02T13:24:50.408Z,101335.63
2022-09-02T13:27:35.031Z,101340.91
2022-09-02T13:30:24.585Z,101340.31
2022-09-02T13:33:22.279Z,101335.22
2022-09-02T13:35:57.104Z,101338.59
2022-09-02T13:38:26.158Z,101345.00
2022-09-02T13:40:53.789Z,101332.34
2022-09-02T13:43:23.995Z,101327.28
2022-09-02T13:45:53.201Z,101332.00
2022-09-02T13:48:28.883Z,101322.34
2022-09-02T13:50:58.445Z,101330.53
2022-09-02T13:53:53.951Z,101319.63
2022-09-02T13:56:30.683Z,101324.09
2022-09-02T13:58:58.363Z,101319.38
2022-09-02T14:01:32.712Z,101306.66
2022-09-02T14:06:40.042Z,101309.47
2022-09-02T14:09:08.394Z,101316.63
2022-09-02T14:11:45.690Z,101295.38
2022-09-02T14:14:19.620Z,101298.16
2022-09-02T14:16:47.204Z,101289.03
2022-09-02T14:19:17.588Z,101293.00
2022-09-02T14:21:50.884Z,101289.03
2022-09-02T14:24:23.822Z,101288.38
2022-09-02T14:26:54.983Z,101294.00
2022-09-02T14:29:23.720Z,101273.88
2022-09-02T14:32:05.162Z,101281.81
2022-09-02T14:34:38.669Z,101283.25
2022-09-02T14:37:35.647Z,101276.63
2022-09-02T14:40:08.948Z,101277.72
2022-09-02T14:42:46.678Z,101267.44
2022-09-02T14:45:14.540Z,101261.81
2022-09-02T14:47:42.675Z,101269.59
2022-09-02T14:50:15.696Z,101265.78
2022-09-02T14:52:49.675Z,101265.56
2022-09-02T14:55:45.500Z,101266.06
2022-09-02T14:58:13.076Z,101261.69
2022-09-02T15:00:40.726Z,101254.88
2022-09-02T15:03:10.227Z,101249.75
2022-09-02T15:05:37.682Z,101254.34
2022-09-02T15:08:05.241Z,101254.03
2022-09-02T15:10:33.457Z,101250.81
2022-09-02T15:13:01.699Z,101256.44
2022-09-02T15:15:29.212Z,101242.78
2022-09-02T15:17:56.772Z,101245.28
2022-09-02T15:20:24.568Z,101242.97
2022-09-02T15:22:53.206Z,101243.81
2022-09-02T15:25:21.592Z,101239.75
2022-09-02T15:27:49.123Z,101237.63
2022-09-02T15:30:16.979Z,101234.72
2022-09-02T15:32:45.292Z,101230.16
2022-09-02T15:35:13.047Z,101231.16
2022-09-02T15:37:40.576Z,101234.56
2022-09-02T15:40:09.890Z,101236.66
2022-09-02T15:42:38.724Z,101223.63
2022-09-02T15:45:09.962Z,101226.38
2022-09-02T15:47:38.350Z,101224.09
2022-09-02T15:50:06.749Z,101221.72
2022-09-02T15:52:35.789Z,101226.25
2022-09-02T15:55:03.457Z,101218.88
2022-09-02T15:57:30.963Z,101230.53
2022-09-02T15:59:58.583Z,101218.34
2022-09-02T16:02:26.149Z,101216.44
2022-09-02T16:04:53.698Z,101212.13
2022-09-02T16:07:21.481Z,101218.59
2022-09-02T16:09:48.973Z,101206.31
2022-09-02T16:12:16.461Z,101204.22
2022-09-02T16:14:43.952Z,101198.03
2022-09-02T16:17:11.506Z,101198.56
2022-09-02T16:19:39.391Z,101200.16
2022-09-02T16:22:06.882Z,101184.81
2022-09-02T16:24:34.503Z,101186.75
2022-09-02T16:27:02.277Z,101185.53
2022-09-02T16:29:30.686Z,101183.53
2022-09-02T16:34:46.776Z,101180.25
2022-09-02T16:37:14.450Z,101174.13
2022-09-02T16:39:42.144Z,101167.56
2022-09-02T16:42:09.733Z,101174.78
2022-09-02T16:44:37.446Z,101173.16
2022-09-02T16:47:05.090Z,101173.81
2022-09-02T16:49:34.417Z,101162.03
2022-09-02T16:52:01.916Z,101168.03
2022-09-02T16:54:31.545Z,101168.66
2022-09-02T16:57:01.660Z,101175.25
2022-09-02T16:59:31.430Z,101157.56
2022-09-02T17:01:59.140Z,101169.16
2022-09-02T17:04:26.678Z,101165.53
2022-09-02T17:06:54.185Z,101165.94
2022-09-02T17:09:21.699Z,101155.84
2022-09-02T17:11:49.256Z,101161.09
2022-09-02T17:14:18.802Z,101156.25
2022-09-02T17:16:48.363Z,101158.34
2022-09-02T17:19:21.387Z,101153.72
2022-09-02T17:21:50.904Z,101154.91
2022-09-02T17:24:19.915Z,101155.09
2022-09-02T17:26:51.210Z,101155.09
2022-09-02T17:29:47.489Z,101151.28
2022-09-02T17:32:09.478Z,101151.03
2022-09-02T17:34:37.812Z,101154.06
2022-09-02T17:37:05.934Z,101153.88
2022-09-02T17:39:34.357Z,101151.41
2022-09-02T17:42:02.110Z,101149.03
2022-09-02T17:44:38.741Z,101152.03
2022-09-02T17:47:07.938Z,101148.88
2022-09-02T17:49:36.547Z,101159.88
2022-09-02T17:52:07.330Z,101154.56
2022-09-02T17:54:36.947Z,101154.94
2022-09-02T17:57:32.746Z,101160.56
2022-09-02T18:00:11.457Z,101161.28
2022-09-02T18:03:13.917Z,101165.59
2022-09-02T18:05:45.641Z,101164.06
2022-09-02T18:08:54.803Z,101157.25
2022-09-02T18:11:23.385Z,101164.88
2022-09-02T18:14:16.911Z,101156.31
2022-09-02T18:17:12.089Z,101166.09
2022-09-02T18:20:09.398Z,101164.41
2022-09-02T18:23:04.633Z,101160.72
2022-09-02T18:26:07.023Z,101162.91
2022-09-02T18:29:02.000Z,101162.34
2022-09-02T18:31:54.950Z,101161.88
2022-09-02T18:34:37.405Z,101162.44
2022-09-02T18:37:35.627Z,101156.78
2022-09-02T18:40:38.919Z,101170.25
2022-09-02T18:43:15.790Z,101172.44
2022-09-02T18:45:49.714Z,101166.66
2022-09-02T18:48:22.638Z,101164.34
2022-09-02T18:50:59.258Z,101168.22
2022-09-02T18:53:40.692Z,101168.69
2022-09-02T18:56:11.422Z,101167.25
2022-09-02T18:58:52.181Z,101170.25
2022-09-02T19:01:30.348Z,101174.06
2022-09-02T19:04:01.808Z,101173.44
2022-09-02T19:06:34.417Z,101160.63
2022-09-02T19:09:17.099Z,101172.16
2022-09-02T19:11:44.876Z,101177.75
2022-09-02T19:14:31.241Z,101183.84
2022-09-02T19:16:59.696Z,101178.81
2022-09-02T19:19:35.162Z,101185.19
2022-09-02T19:22:09.101Z,101190.69
2022-09-02T19:24:39.586Z,101184.00
2022-09-02T19:27:14.421Z,101191.19
2022-09-02T19:29:46.017Z,101186.91
2022-09-02T19:32:14.341Z,101188.69
2022-09-02T19:34:46.133Z,101185.91
2022-09-02T19:37:14.871Z,101185.13
2022-09-02T19:39:42.624Z,101181.63
2022-09-02T19:42:11.288Z,101188.75
2022-09-02T19:44:40.008Z,101189.63
2022-09-02T19:47:56.106Z,101187.03
2022-09-02T19:49:57.455Z,101193.63
2022-09-02T19:52:25.431Z,101190.31
2022-09-02T19:54:52.947Z,101183.56
2022-09-02T19:57:20.455Z,101197.47
2022-09-02T19:59:47.985Z,101191.47
2022-09-02T20:02:16.434Z,101185.69
2022-09-02T20:04:44.089Z,101190.97
2022-09-02T20:07:11.855Z,101194.84
2022-09-02T20:09:39.446Z,101195.97
2022-09-02T20:12:09.550Z,101189.81
2022-09-02T20:14:37.165Z,101200.63
2022-09-02T20:17:13.435Z,101187.66
2022-09-02T20:19:42.251Z,101190.34
2022-09-02T20:22:14.914Z,101187.91
2022-09-02T20:24:43.538Z,101189.88
2022-09-02T20:27:29.289Z,101196.16
2022-09-02T20:30:05.861Z,101190.28
2022-09-02T20:32:43.738Z,101187.84
2022-09-02T20:35:24.397Z,101183.63
2022-09-02T20:38:04.626Z,101193.38
2022-09-02T20:40:45.803Z,101191.66
2022-09-02T20:43:19.311Z,101189.94
2022-09-02T20:45:58.235Z,101189.28
2022-09-02T20:48:39.467Z,101190.34
2022-09-02T20:51:17.144Z,101189.88
2022-09-02T20:54:22.586Z,101184.59
2022-09-02T20:57:19.743Z,101188.06
2022-09-02T21:00:06.467Z,101186.56
2022-09-02T21:02:43.072Z,101192.22
2022-09-02T21:05:22.126Z,101184.19
2022-09-02T21:07:56.072Z,101173.09
2022-09-02T21:10:31.406Z,101183.75
2022-09-02T21:13:36.791Z,101173.22
2022-09-02T21:16:19.503Z,101186.66
2022-09-02T21:19:05.357Z,101184.94
2022-09-02T21:22:14.565Z,101178.16
2022-09-02T21:24:54.238Z,101185.41
2022-09-02T21:27:27.822Z,101175.78
2022-09-02T21:30:12.098Z,101180.97
2022-09-02T21:32:48.042Z,101178.53
2022-09-02T21:35:28.948Z,101179.59
2022-09-02T21:38:04.446Z,101176.94
2022-09-02T21:40:55.491Z,101177.06
2022-09-02T21:43:31.862Z,101175.19
2022-09-02T21:46:05.586Z,101178.91
2022-09-02T21:49:10.649Z,101170.19
2022-09-02T21:51:46.915Z,101174.69
2022-09-02T21:54:26.207Z,101168.97
2022-09-02T21:57:15.609Z,101170.06
2022-09-02T21:59:43.176Z,101174.72
2022-09-02T22:02:31.410Z,101158.78
2022-09-02T22:05:18.532Z,101171.41
2022-09-02T22:07:55.509Z,101175.75
2022-09-02T22:10:44.509Z,101176.78
2022-09-02T22:13:12.923Z,101164.69
2022-09-02T22:16:01.580Z,101154.38
2022-09-02T22:18:34.764Z,101164.81
2022-09-02T22:21:09.375Z,101163.88
2022-09-02T22:23:37.145Z,101154.81
2022-09-02T22:26:30.420Z,101150.13
2022-09-02T22:29:05.635Z,101159.00
2022-09-02T22:31:35.966Z,101149.56
2022-09-02T22:34:08.590Z,101154.72
2022-09-02T22:36:55.154Z,101151.41
2022-09-02T22:39:56.110Z,101155.16
2022-09-02T22:42:34.135Z,101150.28
2022-09-02T22:45:32.311Z,101154.66
2022-09-02T22:48:40.578Z,101152.94
2022-09-02T22:51:37.089Z,101146.09
2022-09-02T22:54:04.682Z,101142.78
2022-09-02T22:56:53.941Z,101155.81
2022-09-02T22:59:39.878Z,101147.91
2022-09-02T23:02:24.390Z,101151.53
2022-09-02T23:05:36.910Z,101147.47
2022-09-02T23:08:06.614Z,101139.75
2022-09-02T23:10:37.619Z,101158.78
2022-09-02T23:13:19.375Z,101144.25
2022-09-02T23:15:58.569Z,101146.06
2022-09-02T23:18:42.164Z,101131.56
2022-09-02T23:21:41.386Z,101138.53
2022-09-02T23:24:13.390Z,101142.84
2022-09-02T23:26:50.004Z,101136.03
2022-09-02T23:29:24.254Z,101137.00
2022-09-02T23:32:22.567Z,101134.44
2022-09-02T23:35:20.578Z,101140.81
2022-09-02T23:38:23.488Z,101133.09
2022-09-02T23:41:14.721Z,101131.34
2022-09-02T23:43:43.882Z,101114.06
2022-09-02T23:46:54.835Z,101131.34
2022-09-02T23:49:32.606Z,101125.41
2022-09-02T23:52:27.300Z,101125.56
2022-09-02T23:55:05.570Z,101128.31
2022-09-02T23:57:33.912Z,101130.28
